Honey Grove, Texas
Current Conditions -  °F | °C
As of 12:15 AM on Thursday 23 Oct 2014 (Local Time) from KPRX Reporting Station
Clear Clear  
Wind Chill: 61°   Ceiling: Unl
Heat Index: 61°   Visibility: 2.5mi
Dew Point: 48°   Wind: 7mph
Humidity: 63%   Direction: 110°ESE
Pressure: 30.14"   Gusts: NA
Location:  33.58°N, 95.91°W
Report Text: KPRX 230515Z 11006KT 2 1/2SM CLR 16/09 A3014 RMK AO1
Loading
Personal Weather Stations






























Interactive Weather Map
Tropical Storm Tracking
New forecast layout! Learn more

10-Day Weather Forecast

Advertisements
Track Severe Weather on mobile